sensor_id;sensor_type;location;lat;lon;timestamp;P1;durP1;ratioP1;P2;durP2;ratioP2
39016;SDS011;24784;45.582;5.276;2022-12-18T00:00:42;86.68;;;35.20;;
39016;SDS011;24784;45.582;5.276;2022-12-18T00:03:09;97.43;;;37.85;;
39016;SDS011;24784;45.582;5.276;2022-12-18T00:05:35;92.18;;;34.33;;
39016;SDS011;24784;45.582;5.276;2022-12-18T00:08:01;80.97;;;30.13;;
39016;SDS011;24784;45.582;5.276;2022-12-18T00:10:28;82.45;;;32.10;;
39016;SDS011;24784;45.582;5.276;2022-12-18T00:12:54;82.20;;;30.88;;
39016;SDS011;24784;45.582;5.276;2022-12-18T00:15:20;78.32;;;31.13;;
39016;SDS011;24784;45.582;5.276;2022-12-18T00:17:45;83.80;;;34.40;;
39016;SDS011;24784;45.582;5.276;2022-12-18T00:20:11;88.65;;;31.48;;
39016;SDS011;24784;45.582;5.276;2022-12-18T00:22:37;88.32;;;30.77;;
39016;SDS011;24784;45.582;5.276;2022-12-18T00:25:03;80.82;;;29.67;;
39016;SDS011;24784;45.582;5.276;2022-12-18T00:27:29;79.63;;;30.00;;
39016;SDS011;24784;45.582;5.276;2022-12-18T00:29:55;87.75;;;31.00;;
39016;SDS011;24784;45.582;5.276;2022-12-18T00:32:20;81.32;;;32.10;;
39016;SDS011;24784;45.582;5.276;2022-12-18T00:34:46;82.90;;;30.90;;
39016;SDS011;24784;45.582;5.276;2022-12-18T00:37:12;80.35;;;32.10;;
39016;SDS011;24784;45.582;5.276;2022-12-18T00:39:38;81.55;;;31.05;;
39016;SDS011;24784;45.582;5.276;2022-12-18T00:42:03;86.38;;;30.25;;
39016;SDS011;24784;45.582;5.276;2022-12-18T00:44:48;82.40;;;30.00;;
39016;SDS011;24784;45.582;5.276;2022-12-18T00:47:14;74.70;;;28.83;;
39016;SDS011;24784;45.582;5.276;2022-12-18T00:49:39;80.65;;;28.35;;
39016;SDS011;24784;45.582;5.276;2022-12-18T00:52:05;71.47;;;28.73;;
39016;SDS011;24784;45.582;5.276;2022-12-18T00:54:31;72.65;;;27.63;;
39016;SDS011;24784;45.582;5.276;2022-12-18T00:56:57;76.32;;;29.08;;
39016;SDS011;24784;45.582;5.276;2022-12-18T00:59:23;74.78;;;28.45;;
39016;SDS011;24784;45.582;5.276;2022-12-18T01:01:48;72.45;;;27.27;;
39016;SDS011;24784;45.582;5.276;2022-12-18T01:04:14;78.03;;;28.35;;
39016;SDS011;24784;45.582;5.276;2022-12-18T01:06:40;75.20;;;28.58;;
39016;SDS011;24784;45.582;5.276;2022-12-18T01:09:06;76.68;;;27.25;;
39016;SDS011;24784;45.582;5.276;2022-12-18T01:11:31;77.90;;;29.80;;
39016;SDS011;24784;45.582;5.276;2022-12-18T01:13:57;70.18;;;26.35;;
39016;SDS011;24784;45.582;5.276;2022-12-18T01:16:26;75.22;;;30.15;;
39016;SDS011;24784;45.582;5.276;2022-12-18T01:18:52;73.68;;;27.92;;
39016;SDS011;24784;45.582;5.276;2022-12-18T01:21:19;81.88;;;28.90;;
39016;SDS011;24784;45.582;5.276;2022-12-18T01:23:46;71.53;;;27.63;;
39016;SDS011;24784;45.582;5.276;2022-12-18T01:26:15;71.30;;;26.65;;
39016;SDS011;24784;45.582;5.276;2022-12-18T01:28:41;75.80;;;29.55;;
39016;SDS011;24784;45.582;5.276;2022-12-18T01:31:09;74.90;;;27.98;;
39016;SDS011;24784;45.582;5.276;2022-12-18T01:33:40;71.43;;;27.65;;
39016;SDS011;24784;45.582;5.276;2022-12-18T01:36:06;75.72;;;30.00;;
39016;SDS011;24784;45.582;5.276;2022-12-18T01:38:32;74.38;;;28.55;;
39016;SDS011;24784;45.582;5.276;2022-12-18T01:40:59;75.05;;;28.48;;
39016;SDS011;24784;45.582;5.276;2022-12-18T01:46:12;81.70;;;28.95;;
39016;SDS011;24784;45.582;5.276;2022-12-18T01:48:38;74.43;;;27.77;;
39016;SDS011;24784;45.582;5.276;2022-12-18T01:51:05;71.85;;;28.38;;
39016;SDS011;24784;45.582;5.276;2022-12-18T01:53:32;84.70;;;31.15;;
39016;SDS011;24784;45.582;5.276;2022-12-18T01:55:59;76.22;;;28.83;;
39016;SDS011;24784;45.582;5.276;2022-12-18T01:59:07;70.13;;;29.15;;
39016;SDS011;24784;45.582;5.276;2022-12-18T02:01:19;71.57;;;27.58;;
39016;SDS011;24784;45.582;5.276;2022-12-18T02:03:50;72.63;;;28.52;;
39016;SDS011;24784;45.582;5.276;2022-12-18T02:06:27;70.80;;;29.13;;
39016;SDS011;24784;45.582;5.276;2022-12-18T02:17:01;72.45;;;28.30;;
39016;SDS011;24784;45.582;5.276;2022-12-18T02:19:47;71.28;;;29.08;;
39016;SDS011;24784;45.582;5.276;2022-12-18T02:28:00;71.22;;;26.58;;
39016;SDS011;24784;45.582;5.276;2022-12-18T02:30:29;64.55;;;25.10;;
39016;SDS011;24784;45.582;5.276;2022-12-18T02:32:58;63.45;;;26.42;;
39016;SDS011;24784;45.582;5.276;2022-12-18T02:35:29;58.13;;;25.92;;
39016;SDS011;24784;45.582;5.276;2022-12-18T02:37:57;61.22;;;26.30;;
39016;SDS011;24784;45.582;5.276;2022-12-18T02:40:24;66.28;;;26.02;;
39016;SDS011;24784;45.582;5.276;2022-12-18T02:42:52;67.90;;;26.98;;
39016;SDS011;24784;45.582;5.276;2022-12-18T02:45:18;65.60;;;27.08;;
39016;SDS011;24784;45.582;5.276;2022-12-18T02:47:45;71.22;;;26.35;;
39016;SDS011;24784;45.582;5.276;2022-12-18T02:50:16;62.67;;;27.55;;
39016;SDS011;24784;45.582;5.276;2022-12-18T02:52:53;64.15;;;26.55;;
39016;SDS011;24784;45.582;5.276;2022-12-18T03:03:50;68.78;;;26.60;;
39016;SDS011;24784;45.582;5.276;2022-12-18T03:08:58;68.05;;;27.45;;
39016;SDS011;24784;45.582;5.276;2022-12-18T03:11:28;63.97;;;26.75;;
39016;SDS011;24784;45.582;5.276;2022-12-18T03:14:16;69.50;;;27.02;;
39016;SDS011;24784;45.582;5.276;2022-12-18T03:16:44;65.40;;;27.55;;
39016;SDS011;24784;45.582;5.276;2022-12-18T03:19:12;61.72;;;24.98;;
39016;SDS011;24784;45.582;5.276;2022-12-18T03:21:49;67.88;;;26.77;;
39016;SDS011;24784;45.582;5.276;2022-12-18T03:24:19;67.70;;;26.52;;
39016;SDS011;24784;45.582;5.276;2022-12-18T03:26:46;65.00;;;27.23;;
39016;SDS011;24784;45.582;5.276;2022-12-18T03:29:21;62.65;;;26.20;;
39016;SDS011;24784;45.582;5.276;2022-12-18T03:31:51;71.03;;;27.90;;
39016;SDS011;24784;45.582;5.276;2022-12-18T03:34:23;64.75;;;26.38;;
39016;SDS011;24784;45.582;5.276;2022-12-18T03:36:54;66.00;;;27.80;;
39016;SDS011;24784;45.582;5.276;2022-12-18T03:39:20;65.43;;;26.20;;
39016;SDS011;24784;45.582;5.276;2022-12-18T03:41:48;62.65;;;27.83;;
39016;SDS011;24784;45.582;5.276;2022-12-18T03:44:26;65.47;;;26.08;;
39016;SDS011;24784;45.582;5.276;2022-12-18T03:47:07;62.55;;;25.25;;
39016;SDS011;24784;45.582;5.276;2022-12-18T03:52:09;63.90;;;27.25;;
39016;SDS011;24784;45.582;5.276;2022-12-18T03:54:48;62.95;;;27.20;;
39016;SDS011;24784;45.582;5.276;2022-12-18T03:57:19;57.28;;;25.58;;
39016;SDS011;24784;45.582;5.276;2022-12-18T03:59:49;61.92;;;26.45;;
39016;SDS011;24784;45.582;5.276;2022-12-18T04:02:19;67.50;;;26.88;;
39016;SDS011;24784;45.582;5.276;2022-12-18T04:04:48;70.75;;;28.00;;
39016;SDS011;24784;45.582;5.276;2022-12-18T04:07:22;65.00;;;26.42;;
39016;SDS011;24784;45.582;5.276;2022-12-18T04:09:49;58.88;;;26.58;;
39016;SDS011;24784;45.582;5.276;2022-12-18T04:12:18;62.42;;;25.58;;
39016;SDS011;24784;45.582;5.276;2022-12-18T04:14:44;65.00;;;26.45;;
39016;SDS011;24784;45.582;5.276;2022-12-18T04:17:10;65.65;;;27.05;;
39016;SDS011;24784;45.582;5.276;2022-12-18T04:19:35;63.80;;;25.77;;
39016;SDS011;24784;45.582;5.276;2022-12-18T04:22:01;68.68;;;26.58;;
39016;SDS011;24784;45.582;5.276;2022-12-18T04:24:27;59.15;;;25.83;;
39016;SDS011;24784;45.582;5.276;2022-12-18T04:26:53;60.28;;;26.38;;
39016;SDS011;24784;45.582;5.276;2022-12-18T04:29:18;58.67;;;25.95;;
39016;SDS011;24784;45.582;5.276;2022-12-18T04:31:44;59.45;;;24.20;;
39016;SDS011;24784;45.582;5.276;2022-12-18T04:34:10;56.63;;;25.77;;
39016;SDS011;24784;45.582;5.276;2022-12-18T04:36:36;60.65;;;26.10;;
39016;SDS011;24784;45.582;5.276;2022-12-18T04:39:02;51.58;;;25.45;;
39016;SDS011;24784;45.582;5.276;2022-12-18T04:41:27;57.03;;;26.42;;
39016;SDS011;24784;45.582;5.276;2022-12-18T04:43:53;60.50;;;25.05;;
39016;SDS011;24784;45.582;5.276;2022-12-18T04:46:19;61.10;;;25.20;;
39016;SDS011;24784;45.582;5.276;2022-12-18T04:48:45;57.75;;;24.95;;
39016;SDS011;24784;45.582;5.276;2022-12-18T04:51:12;53.13;;;23.52;;
39016;SDS011;24784;45.582;5.276;2022-12-18T04:53:37;59.30;;;24.65;;
39016;SDS011;24784;45.582;5.276;2022-12-18T04:56:04;61.60;;;25.33;;
39016;SDS011;24784;45.582;5.276;2022-12-18T04:58:35;58.15;;;25.13;;
39016;SDS011;24784;45.582;5.276;2022-12-18T05:01:02;62.50;;;25.08;;
39016;SDS011;24784;45.582;5.276;2022-12-18T05:03:28;52.72;;;24.08;;
39016;SDS011;24784;45.582;5.276;2022-12-18T05:05:54;53.20;;;23.15;;
39016;SDS011;24784;45.582;5.276;2022-12-18T05:08:20;58.35;;;25.33;;
39016;SDS011;24784;45.582;5.276;2022-12-18T05:10:45;57.17;;;24.10;;
39016;SDS011;24784;45.582;5.276;2022-12-18T05:13:11;51.72;;;23.70;;
39016;SDS011;24784;45.582;5.276;2022-12-18T05:15:37;55.17;;;24.00;;
39016;SDS011;24784;45.582;5.276;2022-12-18T05:18:03;55.38;;;24.60;;
39016;SDS011;24784;45.582;5.276;2022-12-18T05:20:29;61.92;;;25.50;;
39016;SDS011;24784;45.582;5.276;2022-12-18T05:22:56;62.70;;;26.42;;
39016;SDS011;24784;45.582;5.276;2022-12-18T05:25:22;57.08;;;23.05;;
39016;SDS011;24784;45.582;5.276;2022-12-18T05:27:48;56.78;;;24.60;;
39016;SDS011;24784;45.582;5.276;2022-12-18T05:30:14;61.97;;;24.88;;
39016;SDS011;24784;45.582;5.276;2022-12-18T05:32:41;48.90;;;23.23;;
39016;SDS011;24784;45.582;5.276;2022-12-18T05:35:08;47.17;;;22.90;;
39016;SDS011;24784;45.582;5.276;2022-12-18T05:37:35;54.80;;;24.52;;
39016;SDS011;24784;45.582;5.276;2022-12-18T05:40:01;54.35;;;24.73;;
39016;SDS011;24784;45.582;5.276;2022-12-18T05:42:27;56.72;;;24.20;;
39016;SDS011;24784;45.582;5.276;2022-12-18T05:44:53;56.92;;;24.25;;
39016;SDS011;24784;45.582;5.276;2022-12-18T05:47:19;52.55;;;23.08;;
39016;SDS011;24784;45.582;5.276;2022-12-18T05:49:44;57.85;;;24.45;;
39016;SDS011;24784;45.582;5.276;2022-12-18T05:52:10;57.65;;;22.40;;
39016;SDS011;24784;45.582;5.276;2022-12-18T05:54:36;48.75;;;22.42;;
39016;SDS011;24784;45.582;5.276;2022-12-18T05:57:01;53.10;;;24.50;;
39016;SDS011;24784;45.582;5.276;2022-12-18T05:59:27;53.03;;;22.98;;
39016;SDS011;24784;45.582;5.276;2022-12-18T06:01:53;50.90;;;21.85;;
39016;SDS011;24784;45.582;5.276;2022-12-18T06:04:19;52.92;;;24.40;;
39016;SDS011;24784;45.582;5.276;2022-12-18T06:06:44;53.35;;;23.02;;
39016;SDS011;24784;45.582;5.276;2022-12-18T06:09:10;53.67;;;24.35;;
39016;SDS011;24784;45.582;5.276;2022-12-18T06:11:37;52.00;;;22.25;;
39016;SDS011;24784;45.582;5.276;2022-12-18T06:14:04;47.08;;;22.00;;
39016;SDS011;24784;45.582;5.276;2022-12-18T06:16:31;50.03;;;22.00;;
39016;SDS011;24784;45.582;5.276;2022-12-18T06:19:00;45.70;;;20.92;;
39016;SDS011;24784;45.582;5.276;2022-12-18T06:21:27;51.75;;;21.60;;
39016;SDS011;24784;45.582;5.276;2022-12-18T06:23:54;47.55;;;20.85;;
39016;SDS011;24784;45.582;5.276;2022-12-18T06:26:20;47.22;;;21.23;;
39016;SDS011;24784;45.582;5.276;2022-12-18T06:28:45;50.45;;;21.20;;
39016;SDS011;24784;45.582;5.276;2022-12-18T06:31:11;49.33;;;21.58;;
39016;SDS011;24784;45.582;5.276;2022-12-18T06:33:37;45.83;;;19.90;;
39016;SDS011;24784;45.582;5.276;2022-12-18T06:36:04;47.63;;;21.48;;
39016;SDS011;24784;45.582;5.276;2022-12-18T06:38:33;46.13;;;21.42;;
39016;SDS011;24784;45.582;5.276;2022-12-18T06:40:59;46.75;;;21.38;;
39016;SDS011;24784;45.582;5.276;2022-12-18T06:43:25;48.63;;;20.98;;
39016;SDS011;24784;45.582;5.276;2022-12-18T06:45:51;46.83;;;21.40;;
39016;SDS011;24784;45.582;5.276;2022-12-18T06:50:50;47.92;;;19.75;;
39016;SDS011;24784;45.582;5.276;2022-12-18T06:53:16;42.50;;;20.70;;
39016;SDS011;24784;45.582;5.276;2022-12-18T06:55:42;49.40;;;21.95;;
39016;SDS011;24784;45.582;5.276;2022-12-18T06:58:08;51.35;;;21.92;;
39016;SDS011;24784;45.582;5.276;2022-12-18T07:00:34;50.70;;;21.48;;
39016;SDS011;24784;45.582;5.276;2022-12-18T07:03:00;54.95;;;23.08;;
39016;SDS011;24784;45.582;5.276;2022-12-18T07:05:26;45.17;;;21.65;;
39016;SDS011;24784;45.582;5.276;2022-12-18T07:07:51;53.38;;;22.80;;
39016;SDS011;24784;45.582;5.276;2022-12-18T07:10:17;51.55;;;22.75;;
39016;SDS011;24784;45.582;5.276;2022-12-18T07:12:43;51.65;;;21.63;;
39016;SDS011;24784;45.582;5.276;2022-12-18T07:15:09;54.03;;;23.40;;
39016;SDS011;24784;45.582;5.276;2022-12-18T07:17:34;58.28;;;24.75;;
39016;SDS011;24784;45.582;5.276;2022-12-18T07:20:00;56.25;;;24.60;;
39016;SDS011;24784;45.582;5.276;2022-12-18T07:22:26;53.33;;;23.08;;
39016;SDS011;24784;45.582;5.276;2022-12-18T07:24:52;47.60;;;21.52;;
39016;SDS011;24784;45.582;5.276;2022-12-18T07:27:17;45.88;;;20.08;;
39016;SDS011;24784;45.582;5.276;2022-12-18T07:29:43;50.15;;;21.80;;
39016;SDS011;24784;45.582;5.276;2022-12-18T07:32:09;50.97;;;21.00;;
39016;SDS011;24784;45.582;5.276;2022-12-18T07:34:35;47.05;;;21.38;;
39016;SDS011;24784;45.582;5.276;2022-12-18T07:37:00;43.05;;;20.52;;
39016;SDS011;24784;45.582;5.276;2022-12-18T07:39:26;45.67;;;20.20;;
39016;SDS011;24784;45.582;5.276;2022-12-18T07:41:52;53.15;;;20.73;;
39016;SDS011;24784;45.582;5.276;2022-12-18T07:44:38;45.28;;;20.90;;
39016;SDS011;24784;45.582;5.276;2022-12-18T07:47:04;47.78;;;20.13;;
39016;SDS011;24784;45.582;5.276;2022-12-18T07:49:29;44.88;;;20.83;;
39016;SDS011;24784;45.582;5.276;2022-12-18T07:51:55;45.35;;;21.05;;
39016;SDS011;24784;45.582;5.276;2022-12-18T07:54:22;47.10;;;20.35;;
39016;SDS011;24784;45.582;5.276;2022-12-18T07:56:48;41.60;;;19.67;;
39016;SDS011;24784;45.582;5.276;2022-12-18T07:59:14;58.72;;;25.38;;
39016;SDS011;24784;45.582;5.276;2022-12-18T08:01:40;46.35;;;20.48;;
39016;SDS011;24784;45.582;5.276;2022-12-18T08:04:06;41.55;;;19.23;;
39016;SDS011;24784;45.582;5.276;2022-12-18T08:06:31;44.13;;;19.63;;
39016;SDS011;24784;45.582;5.276;2022-12-18T08:08:57;46.85;;;21.73;;
39016;SDS011;24784;45.582;5.276;2022-12-18T08:11:24;52.85;;;23.75;;
39016;SDS011;24784;45.582;5.276;2022-12-18T08:13:51;60.35;;;27.95;;
39016;SDS011;24784;45.582;5.276;2022-12-18T08:16:17;52.70;;;23.67;;
39016;SDS011;24784;45.582;5.276;2022-12-18T08:18:43;47.30;;;20.75;;
39016;SDS011;24784;45.582;5.276;2022-12-18T08:23:38;44.55;;;20.85;;
39016;SDS011;24784;45.582;5.276;2022-12-18T08:26:04;51.03;;;22.00;;
39016;SDS011;24784;45.582;5.276;2022-12-18T08:28:30;63.20;;;26.50;;
39016;SDS011;24784;45.582;5.276;2022-12-18T08:30:56;67.20;;;31.83;;
39016;SDS011;24784;45.582;5.276;2022-12-18T08:33:21;51.38;;;23.55;;
39016;SDS011;24784;45.582;5.276;2022-12-18T08:35:47;58.85;;;27.27;;
39016;SDS011;24784;45.582;5.276;2022-12-18T08:38:13;67.13;;;31.08;;
39016;SDS011;24784;45.582;5.276;2022-12-18T08:40:39;54.72;;;25.45;;
39016;SDS011;24784;45.582;5.276;2022-12-18T08:43:04;51.70;;;24.42;;
39016;SDS011;24784;45.582;5.276;2022-12-18T08:45:49;42.75;;;20.42;;
39016;SDS011;24784;45.582;5.276;2022-12-18T08:48:14;48.80;;;22.65;;
39016;SDS011;24784;45.582;5.276;2022-12-18T08:50:40;47.17;;;22.73;;
39016;SDS011;24784;45.582;5.276;2022-12-18T08:53:06;48.28;;;23.15;;
39016;SDS011;24784;45.582;5.276;2022-12-18T08:55:31;46.83;;;22.92;;
39016;SDS011;24784;45.582;5.276;2022-12-18T08:57:57;40.60;;;20.02;;
39016;SDS011;24784;45.582;5.276;2022-12-18T09:00:23;41.55;;;21.27;;
39016;SDS011;24784;45.582;5.276;2022-12-18T09:02:48;50.00;;;21.70;;
39016;SDS011;24784;45.582;5.276;2022-12-18T09:05:14;44.55;;;21.38;;
39016;SDS011;24784;45.582;5.276;2022-12-18T09:07:40;45.60;;;23.23;;
39016;SDS011;24784;45.582;5.276;2022-12-18T09:10:06;45.83;;;21.27;;
39016;SDS011;24784;45.582;5.276;2022-12-18T09:12:32;51.90;;;23.33;;
39016;SDS011;24784;45.582;5.276;2022-12-18T09:14:57;44.97;;;21.33;;
39016;SDS011;24784;45.582;5.276;2022-12-18T09:17:24;45.35;;;22.55;;
39016;SDS011;24784;45.582;5.276;2022-12-18T09:19:49;36.72;;;19.60;;
39016;SDS011;24784;45.582;5.276;2022-12-18T09:22:15;34.60;;;17.52;;
39016;SDS011;24784;45.582;5.276;2022-12-18T09:24:41;37.33;;;19.20;;
39016;SDS011;24784;45.582;5.276;2022-12-18T09:27:07;33.85;;;16.88;;
39016;SDS011;24784;45.582;5.276;2022-12-18T09:29:32;34.65;;;17.55;;
39016;SDS011;24784;45.582;5.276;2022-12-18T09:31:58;37.83;;;16.13;;
39016;SDS011;24784;45.582;5.276;2022-12-18T09:34:24;41.05;;;17.98;;
39016;SDS011;24784;45.582;5.276;2022-12-18T09:36:49;34.80;;;17.17;;
39016;SDS011;24784;45.582;5.276;2022-12-18T09:39:15;34.95;;;16.13;;
39016;SDS011;24784;45.582;5.276;2022-12-18T09:41:46;38.70;;;17.13;;
39016;SDS011;24784;45.582;5.276;2022-12-18T09:46:45;34.83;;;16.70;;
39016;SDS011;24784;45.582;5.276;2022-12-18T09:49:16;43.92;;;17.95;;
39016;SDS011;24784;45.582;5.276;2022-12-18T09:54:25;42.40;;;17.98;;
39016;SDS011;24784;45.582;5.276;2022-12-18T09:56:57;34.42;;;15.57;;
39016;SDS011;24784;45.582;5.276;2022-12-18T09:59:24;32.28;;;15.90;;
39016;SDS011;24784;45.582;5.276;2022-12-18T10:02:21;22.85;;;12.40;;
39016;SDS011;24784;45.582;5.276;2022-12-18T10:07:38;30.42;;;15.18;;
39016;SDS011;24784;45.582;5.276;2022-12-18T10:10:45;30.83;;;15.23;;
39016;SDS011;24784;45.582;5.276;2022-12-18T10:21:16;25.10;;;13.90;;
39016;SDS011;24784;45.582;5.276;2022-12-18T10:27:09;29.25;;;14.70;;
39016;SDS011;24784;45.582;5.276;2022-12-18T10:29:41;25.67;;;13.95;;
39016;SDS011;24784;45.582;5.276;2022-12-18T10:32:17;29.73;;;15.80;;
39016;SDS011;24784;45.582;5.276;2022-12-18T10:34:55;36.38;;;18.60;;
39016;SDS011;24784;45.582;5.276;2022-12-18T10:37:23;87.57;;;49.33;;
39016;SDS011;24784;45.582;5.276;2022-12-18T10:40:10;29.20;;;15.30;;
39016;SDS011;24784;45.582;5.276;2022-12-18T10:42:39;54.78;;;31.08;;
39016;SDS011;24784;45.582;5.276;2022-12-18T10:45:10;32.58;;;17.15;;
39016;SDS011;24784;45.582;5.276;2022-12-18T10:47:42;33.50;;;18.65;;
39016;SDS011;24784;45.582;5.276;2022-12-18T10:50:18;34.65;;;18.08;;
39016;SDS011;24784;45.582;5.276;2022-12-18T10:52:57;34.22;;;17.70;;
39016;SDS011;24784;45.582;5.276;2022-12-18T10:55:25;151.02;;;63.60;;
39016;SDS011;24784;45.582;5.276;2022-12-18T10:57:56;39.28;;;19.63;;
39016;SDS011;24784;45.582;5.276;2022-12-18T11:00:48;98.47;;;45.47;;
39016;SDS011;24784;45.582;5.276;2022-12-18T11:03:30;32.50;;;17.00;;
39016;SDS011;24784;45.582;5.276;2022-12-18T11:06:04;34.50;;;16.60;;
39016;SDS011;24784;45.582;5.276;2022-12-18T11:08:32;30.98;;;15.73;;
39016;SDS011;24784;45.582;5.276;2022-12-18T11:10:58;25.45;;;14.68;;
39016;SDS011;24784;45.582;5.276;2022-12-18T11:13:25;28.52;;;14.93;;
39016;SDS011;24784;45.582;5.276;2022-12-18T11:15:52;26.10;;;14.65;;
39016;SDS011;24784;45.582;5.276;2022-12-18T11:20:53;24.88;;;13.77;;
39016;SDS011;24784;45.582;5.276;2022-12-18T11:23:24;24.75;;;13.32;;
39016;SDS011;24784;45.582;5.276;2022-12-18T11:25:52;26.25;;;14.52;;
39016;SDS011;24784;45.582;5.276;2022-12-18T11:36:28;23.98;;;12.48;;
39016;SDS011;24784;45.582;5.276;2022-12-18T11:38:59;24.45;;;12.07;;
39016;SDS011;24784;45.582;5.276;2022-12-18T11:44:35;18.77;;;10.60;;
39016;SDS011;24784;45.582;5.276;2022-12-18T11:50:57;18.40;;;10.50;;
39016;SDS011;24784;45.582;5.276;2022-12-18T11:53:09;16.60;;;9.35;;
39016;SDS011;24784;45.582;5.276;2022-12-18T12:01:07;15.70;;;9.18;;
39016;SDS011;24784;45.582;5.276;2022-12-18T12:07:19;15.00;;;7.72;;
39016;SDS011;24784;45.582;5.276;2022-12-18T12:29:01;18.70;;;11.57;;
39016;SDS011;24784;45.582;5.276;2022-12-18T12:39:40;15.00;;;8.23;;
39016;SDS011;24784;45.582;5.276;2022-12-18T12:42:18;14.43;;;7.82;;
39016;SDS011;24784;45.582;5.276;2022-12-18T12:45:25;14.77;;;6.97;;
39016;SDS011;24784;45.582;5.276;2022-12-18T12:48:02;15.07;;;8.18;;
39016;SDS011;24784;45.582;5.276;2022-12-18T12:50:30;9.52;;;5.72;;
39016;SDS011;24784;45.582;5.276;2022-12-18T12:53:00;11.77;;;6.72;;
39016;SDS011;24784;45.582;5.276;2022-12-18T12:55:30;11.73;;;7.07;;
39016;SDS011;24784;45.582;5.276;2022-12-18T13:00:44;11.88;;;7.13;;
39016;SDS011;24784;45.582;5.276;2022-12-18T13:03:18;13.90;;;8.65;;
39016;SDS011;24784;45.582;5.276;2022-12-18T13:09:31;13.00;;;6.20;;
39016;SDS011;24784;45.582;5.276;2022-12-18T13:12:02;14.82;;;6.68;;
39016;SDS011;24784;45.582;5.276;2022-12-18T13:14:48;13.05;;;5.30;;
39016;SDS011;24784;45.582;5.276;2022-12-18T13:19:43;8.05;;;4.32;;
39016;SDS011;24784;45.582;5.276;2022-12-18T13:24:48;8.20;;;4.97;;
39016;SDS011;24784;45.582;5.276;2022-12-18T13:38:24;9.27;;;5.45;;
39016;SDS011;24784;45.582;5.276;2022-12-18T13:41:04;9.45;;;4.18;;
39016;SDS011;24784;45.582;5.276;2022-12-18T13:45:59;19.13;;;9.45;;
39016;SDS011;24784;45.582;5.276;2022-12-18T13:48:34;12.38;;;5.18;;
39016;SDS011;24784;45.582;5.276;2022-12-18T13:51:04;12.13;;;6.60;;
39016;SDS011;24784;45.582;5.276;2022-12-18T13:53:33;13.95;;;6.63;;
39016;SDS011;24784;45.582;5.276;2022-12-18T13:56:23;13.88;;;6.30;;
39016;SDS011;24784;45.582;5.276;2022-12-18T14:01:41;10.82;;;6.63;;
39016;SDS011;24784;45.582;5.276;2022-12-18T14:04:11;15.27;;;7.82;;
39016;SDS011;24784;45.582;5.276;2022-12-18T14:06:43;14.95;;;7.70;;
39016;SDS011;24784;45.582;5.276;2022-12-18T14:09:13;13.75;;;8.13;;
39016;SDS011;24784;45.582;5.276;2022-12-18T14:11:48;13.93;;;7.25;;
39016;SDS011;24784;45.582;5.276;2022-12-18T14:14:18;13.85;;;7.70;;
39016;SDS011;24784;45.582;5.276;2022-12-18T14:16:45;14.23;;;7.18;;
39016;SDS011;24784;45.582;5.276;2022-12-18T14:19:14;18.20;;;8.27;;
39016;SDS011;24784;45.582;5.276;2022-12-18T14:21:46;12.93;;;7.90;;
39016;SDS011;24784;45.582;5.276;2022-12-18T14:26:49;15.60;;;8.60;;
39016;SDS011;24784;45.582;5.276;2022-12-18T14:31:44;16.42;;;7.57;;
39016;SDS011;24784;45.582;5.276;2022-12-18T14:34:16;15.40;;;8.75;;
39016;SDS011;24784;45.582;5.276;2022-12-18T14:36:51;14.95;;;7.93;;
39016;SDS011;24784;45.582;5.276;2022-12-18T14:39:18;18.50;;;9.35;;
39016;SDS011;24784;45.582;5.276;2022-12-18T14:41:44;15.05;;;8.75;;
39016;SDS011;24784;45.582;5.276;2022-12-18T14:44:11;17.05;;;8.98;;
39016;SDS011;24784;45.582;5.276;2022-12-18T14:46:38;15.88;;;8.40;;
39016;SDS011;24784;45.582;5.276;2022-12-18T14:51:57;16.30;;;8.77;;
39016;SDS011;24784;45.582;5.276;2022-12-18T14:54:25;15.88;;;9.63;;
39016;SDS011;24784;45.582;5.276;2022-12-18T14:57:35;17.23;;;9.80;;
39016;SDS011;24784;45.582;5.276;2022-12-18T14:59:55;15.30;;;9.23;;
39016;SDS011;24784;45.582;5.276;2022-12-18T15:02:34;19.88;;;10.77;;
39016;SDS011;24784;45.582;5.276;2022-12-18T15:05:02;19.52;;;10.02;;
39016;SDS011;24784;45.582;5.276;2022-12-18T15:07:50;18.60;;;10.35;;
39016;SDS011;24784;45.582;5.276;2022-12-18T15:10:25;18.90;;;10.82;;
39016;SDS011;24784;45.582;5.276;2022-12-18T15:20:31;14.48;;;9.15;;
39016;SDS011;24784;45.582;5.276;2022-12-18T15:23:04;18.88;;;10.18;;
39016;SDS011;24784;45.582;5.276;2022-12-18T15:25:37;14.52;;;9.20;;
39016;SDS011;24784;45.582;5.276;2022-12-18T15:28:03;17.50;;;9.52;;
39016;SDS011;24784;45.582;5.276;2022-12-18T15:33:32;18.15;;;10.13;;
39016;SDS011;24784;45.582;5.276;2022-12-18T15:36:00;17.65;;;10.00;;
39016;SDS011;24784;45.582;5.276;2022-12-18T15:38:29;20.13;;;9.80;;
39016;SDS011;24784;45.582;5.276;2022-12-18T15:40:55;16.52;;;8.88;;
39016;SDS011;24784;45.582;5.276;2022-12-18T15:43:22;18.85;;;10.55;;
39016;SDS011;24784;45.582;5.276;2022-12-18T15:48:32;17.58;;;10.02;;
39016;SDS011;24784;45.582;5.276;2022-12-18T15:51:00;15.00;;;9.00;;
39016;SDS011;24784;45.582;5.276;2022-12-18T15:53:33;19.08;;;10.40;;
39016;SDS011;24784;45.582;5.276;2022-12-18T15:55:59;13.93;;;9.32;;
39016;SDS011;24784;45.582;5.276;2022-12-18T16:01:09;18.73;;;10.02;;
39016;SDS011;24784;45.582;5.276;2022-12-18T16:03:36;20.15;;;12.10;;
39016;SDS011;24784;45.582;5.276;2022-12-18T16:06:02;21.63;;;11.98;;
39016;SDS011;24784;45.582;5.276;2022-12-18T16:08:28;17.90;;;10.77;;
39016;SDS011;24784;45.582;5.276;2022-12-18T16:10:55;18.08;;;10.35;;
39016;SDS011;24784;45.582;5.276;2022-12-18T16:13:22;18.65;;;10.35;;
39016;SDS011;24784;45.582;5.276;2022-12-18T16:15:48;15.40;;;9.23;;
39016;SDS011;24784;45.582;5.276;2022-12-18T16:18:14;22.63;;;9.52;;
39016;SDS011;24784;45.582;5.276;2022-12-18T16:20:40;18.08;;;9.38;;
39016;SDS011;24784;45.582;5.276;2022-12-18T16:23:05;14.95;;;7.63;;
39016;SDS011;24784;45.582;5.276;2022-12-18T16:25:31;15.27;;;8.25;;
39016;SDS011;24784;45.582;5.276;2022-12-18T16:27:57;15.25;;;8.23;;
39016;SDS011;24784;45.582;5.276;2022-12-18T16:30:24;16.90;;;9.90;;
39016;SDS011;24784;45.582;5.276;2022-12-18T16:32:53;14.70;;;8.63;;
39016;SDS011;24784;45.582;5.276;2022-12-18T16:35:19;17.45;;;9.65;;
39016;SDS011;24784;45.582;5.276;2022-12-18T16:37:45;14.52;;;8.57;;
39016;SDS011;24784;45.582;5.276;2022-12-18T16:40:12;21.65;;;9.68;;
39016;SDS011;24784;45.582;5.276;2022-12-18T16:42:40;18.23;;;11.23;;
39016;SDS011;24784;45.582;5.276;2022-12-18T16:45:08;25.73;;;11.43;;
39016;SDS011;24784;45.582;5.276;2022-12-18T16:47:36;23.63;;;12.02;;
39016;SDS011;24784;45.582;5.276;2022-12-18T16:50:02;17.63;;;10.90;;
39016;SDS011;24784;45.582;5.276;2022-12-18T16:52:29;19.42;;;11.50;;
39016;SDS011;24784;45.582;5.276;2022-12-18T16:54:55;13.80;;;8.95;;
39016;SDS011;24784;45.582;5.276;2022-12-18T16:57:21;19.60;;;11.38;;
39016;SDS011;24784;45.582;5.276;2022-12-18T16:59:48;22.60;;;10.90;;
39016;SDS011;24784;45.582;5.276;2022-12-18T17:02:15;16.90;;;10.00;;
39016;SDS011;24784;45.582;5.276;2022-12-18T17:04:42;22.23;;;11.13;;
39016;SDS011;24784;45.582;5.276;2022-12-18T17:07:08;19.23;;;11.05;;
39016;SDS011;24784;45.582;5.276;2022-12-18T17:09:34;19.05;;;10.07;;
39016;SDS011;24784;45.582;5.276;2022-12-18T17:12:00;18.55;;;10.55;;